Time;durP1;ratioP1;P1;durP2;ratioP2;P2;SDS_P1;SDS_P2;PMS_P1;PMS_P2;Temp;Humidity;BMP_temperature;BMP_pressure;BME280_temperature;BME280_humidity;BME280_pressure;Samples;Min_cycle;Max_cycle;Signal;HPM_P1;HPM_P2
2022/07/16 00:01:24;;;;;;;0.00;0.00;;;18.40;74.50;;;;;;4972773;28;20586;-77
2022/07/16 00:03:58;;;;;;;0.00;0.00;;;18.30;74.60;;;;;;4972720;28;20039;-76
2022/07/16 00:06:27;;;;;;;0.05;0.05;;;18.20;75.10;;;;;;4972802;28;20041;-76
2022/07/16 00:08:54;;;;;;;0.10;0.10;;;18.20;75.30;;;;;;4955529;28;20431;-77
2022/07/16 00:11:21;;;;;;;0.75;0.30;;;18.10;75.80;;;;;;4955208;28;20031;-77
2022/07/16 00:13:48;;;;;;;0.03;0.03;;;18.00;75.70;;;;;;4972470;28;20027;-77
2022/07/16 00:16:14;;;;;;;0.10;0.10;;;18.00;75.90;;;;;;4972476;28;20038;-76
2022/07/16 00:21:26;;;;;;;0.10;0.10;;;17.90;76.30;;;;;;4958234;28;20069;-76
2022/07/16 00:23:52;;;;;;;0.17;0.17;;;17.90;76.40;;;;;;4972544;28;20470;-76
2022/07/16 00:26:18;;;;;;;0.05;0.05;;;17.90;76.60;;;;;;4955020;28;20037;-76
2022/07/16 00:28:44;;;;;;;0.00;0.00;;;17.90;77.10;;;;;;4971339;28;20037;-77
2022/07/16 00:31:10;;;;;;;0.20;0.20;;;18.10;76.90;;;;;;4955336;28;20039;-76
2022/07/16 00:33:36;;;;;;;0.35;0.35;;;18.20;76.60;;;;;;4939191;28;20061;-77
2022/07/16 00:36:02;;;;;;;0.03;0.03;;;18.20;76.20;;;;;;4955228;28;20085;-77
2022/07/16 00:38:28;;;;;;;0.03;0.03;;;18.30;76.10;;;;;;4955238;28;20506;-76
2022/07/16 00:40:54;;;;;;;0.20;0.20;;;18.30;75.90;;;;;;4972444;28;20110;-76
2022/07/16 00:43:20;;;;;;;2.05;0.68;;;18.20;76.20;;;;;;4954971;28;20026;-76
2022/07/16 00:45:46;;;;;;;0.00;0.00;;;18.00;76.60;;;;;;4972236;28;20058;-76
2022/07/16 00:48:11;;;;;;;1.05;0.15;;;17.80;76.90;;;;;;4972418;28;20027;-76
2022/07/16 00:50:39;;;;;;;0.00;0.00;;;17.70;77.50;;;;;;4954970;28;20460;-76
2022/07/16 00:53:10;;;;;;;0.10;0.10;;;17.60;77.90;;;;;;4970817;28;20038;-76
2022/07/16 00:55:37;;;;;;;0.30;0.27;;;17.50;78.30;;;;;;4972439;28;20026;-76
2022/07/16 00:58:03;;;;;;;0.00;0.00;;;17.40;78.80;;;;;;4972281;28;20298;-76
2022/07/16 01:00:29;;;;;;;0.28;0.10;;;17.40;79.20;;;;;;4942153;28;20034;-76
2022/07/16 01:02:56;;;;;;;0.00;0.00;;;17.40;79.90;;;;;;4975717;28;20594;-76
2022/07/16 01:05:22;;;;;;;0.00;0.00;;;17.30;80.10;;;;;;4958828;28;20040;-76
2022/07/16 01:07:48;;;;;;;0.10;0.10;;;17.30;80.60;;;;;;4965531;28;20038;-76
2022/07/16 01:10:14;;;;;;;0.47;0.43;;;17.20;80.80;;;;;;4963030;28;20023;-76
2022/07/16 01:12:40;;;;;;;0.65;0.65;;;17.20;81.90;;;;;;4994891;28;20031;-76
2022/07/16 01:15:07;;;;;;;0.20;0.10;;;17.20;81.60;;;;;;4990336;28;20038;-76
2022/07/16 01:17:33;;;;;;;0.00;0.00;;;17.10;81.90;;;;;;4974610;28;20033;-76
2022/07/16 01:19:59;;;;;;;0.00;0.00;;;17.10;82.50;;;;;;4974690;28;20247;-76
2022/07/16 01:22:26;;;;;;;0.08;0.08;;;17.10;82.40;;;;;;4974387;28;20068;-76
2022/07/16 01:24:52;;;;;;;0.00;0.00;;;17.10;82.60;;;;;;4990288;28;20113;-76
2022/07/16 01:27:20;;;;;;;0.10;0.10;;;17.00;82.90;;;;;;4994700;28;20030;-77
2022/07/16 01:29:47;;;;;;;0.15;0.05;;;17.00;83.10;;;;;;4961281;28;20034;-76
2022/07/16 01:32:13;;;;;;;0.10;0.10;;;17.00;83.30;;;;;;4977273;28;20031;-76
2022/07/16 01:34:39;;;;;;;0.55;0.55;;;17.00;83.30;;;;;;4994935;28;20400;-76
2022/07/16 01:37:09;;;;;;;3.75;1.27;;;16.90;83.50;;;;;;4994637;28;20172;-76
2022/07/16 01:39:40;;;;;;;0.00;0.00;;;16.90;83.80;;;;;;4977342;28;20045;-77
2022/07/16 01:42:08;;;;;;;0.55;0.38;;;16.90;84.10;;;;;;4961457;28;20173;-76
2022/07/16 01:44:36;;;;;;;2.05;0.47;;;16.80;84.30;;;;;;4974027;28;20105;-77
2022/07/16 01:47:05;;;;;;;0.20;0.20;;;16.80;84.60;;;;;;4957773;28;20031;-76
2022/07/16 01:49:38;;;;;;;0.35;0.25;;;16.80;85.10;;;;;;4973877;28;20109;-77
2022/07/16 01:52:17;;;;;;;0.45;0.45;;;16.70;85.30;;;;;;4973663;28;20042;-76
2022/07/16 01:54:50;;;;;;;0.00;0.00;;;16.70;85.80;;;;;;4957646;28;20039;-76
2022/07/16 01:57:17;;;;;;;0.00;0.00;;;16.60;86.10;;;;;;4974186;28;20030;-77
2022/07/16 01:59:44;;;;;;;1.13;0.38;;;16.50;86.80;;;;;;4973886;28;20039;-75
2022/07/16 02:02:11;;;;;;;0.52;0.52;;;16.50;87.20;;;;;;4957279;28;20121;-77
2022/07/16 02:04:39;;;;;;;0.05;0.05;;;16.40;87.70;;;;;;4957913;28;20523;-77
2022/07/16 02:07:05;;;;;;;2.63;1.10;;;16.20;88.50;;;;;;4973076;28;20114;-76
2022/07/16 02:09:31;;;;;;;1.10;0.43;;;16.10;89.00;;;;;;4973542;28;20102;-76
2022/07/16 02:11:57;;;;;;;0.03;0.03;;;16.20;89.40;;;;;;4972737;28;20435;-77
2022/07/16 02:14:23;;;;;;;3.72;1.20;;;16.00;89.80;;;;;;4958330;28;20019;-76
2022/07/16 02:16:49;;;;;;;0.20;0.10;;;16.10;89.90;;;;;;4976713;28;20057;-77
2022/07/16 02:19:14;;;;;;;0.00;0.00;;;16.10;90.00;;;;;;4993867;28;20042;-76
2022/07/16 02:21:40;;;;;;;0.00;0.00;;;16.20;90.10;;;;;;4976514;28;20494;-76
2022/07/16 02:24:06;;;;;;;0.10;0.10;;;16.20;90.10;;;;;;4976580;28;20034;-76
2022/07/16 02:26:32;;;;;;;0.10;0.10;;;16.20;90.10;;;;;;4993860;28;20046;-76
2022/07/16 02:28:59;;;;;;;0.00;0.00;;;16.10;90.10;;;;;;4993676;28;20406;-76
2022/07/16 02:31:25;;;;;;;0.00;0.00;;;16.10;90.10;;;;;;4976475;28;20566;-76
2022/07/16 02:33:50;;;;;;;0.00;0.00;;;16.10;90.30;;;;;;4993808;28;20139;-77
2022/07/16 02:36:16;;;;;;;3.60;2.38;;;16.10;90.50;;;;;;4993570;28;20061;-76
2022/07/16 02:38:42;;;;;;;0.22;0.22;;;16.00;90.80;;;;;;4992172;23;20106;-74
2022/07/16 02:41:08;;;;;;;0.17;0.15;;;16.00;91.10;;;;;;5002149;28;20371;-73
2022/07/16 02:43:34;;;;;;;0.22;0.13;;;16.00;91.20;;;;;;4993193;28;20578;-73
2022/07/16 02:45:59;;;;;;;0.00;0.00;;;16.00;91.30;;;;;;4993334;28;20045;-73
2022/07/16 02:48:25;;;;;;;0.93;0.90;;;16.00;91.50;;;;;;4973456;28;20047;-73
2022/07/16 02:50:51;;;;;;;0.22;0.22;;;15.90;91.70;;;;;;4973946;28;20027;-73
2022/07/16 02:53:16;;;;;;;0.00;0.00;;;15.80;92.00;;;;;;4973991;28;20113;-74
2022/07/16 02:55:42;;;;;;;0.55;0.55;;;15.80;92.20;;;;;;4973044;28;20038;-74
2022/07/16 02:58:08;;;;;;;0.05;0.05;;;15.80;92.40;;;;;;4974061;28;20030;-73
2022/07/16 03:00:34;;;;;;;0.00;0.00;;;15.80;92.60;;;;;;4973916;28;20068;-73
2022/07/16 03:03:00;;;;;;;0.00;0.00;;;15.80;92.70;;;;;;4973355;28;20042;-74
2022/07/16 03:05:26;;;;;;;0.15;0.15;;;15.80;92.80;;;;;;4972908;28;20031;-74
2022/07/16 03:07:52;;;;;;;0.10;0.10;;;15.80;93.00;;;;;;4973782;28;20042;-74
2022/07/16 03:10:18;;;;;;;0.43;0.43;;;15.80;93.00;;;;;;4972335;28;20081;-74
2022/07/16 03:12:44;;;;;;;0.40;0.40;;;15.80;93.10;;;;;;4972227;28;20038;-74
2022/07/16 03:15:12;;;;;;;0.00;0.00;;;15.80;93.20;;;;;;4963707;28;20033;-74
2022/07/16 03:17:41;;;;;;;0.55;0.20;;;15.70;93.40;;;;;;4993104;28;20030;-74
2022/07/16 03:20:08;;;;;;;0.93;0.50;;;15.70;93.50;;;;;;4992756;28;20422;-74
2022/07/16 03:22:34;;;;;;;0.00;0.00;;;15.70;93.60;;;;;;4992316;28;20041;-74
2022/07/16 03:25:00;;;;;;;0.00;0.00;;;15.70;93.90;;;;;;4992716;28;20022;-74
2022/07/16 03:27:25;;;;;;;0.00;0.00;;;15.70;94.00;;;;;;4975362;28;20026;-74
2022/07/16 03:29:51;;;;;;;0.22;0.10;;;15.80;94.10;;;;;;4992459;28;20493;-74
2022/07/16 03:32:17;;;;;;;0.32;0.32;;;15.80;94.10;;;;;;4992259;28;20117;-74
2022/07/16 03:34:43;;;;;;;0.10;0.10;;;15.70;94.20;;;;;;4992760;28;20022;-75
2022/07/16 03:37:09;;;;;;;0.28;0.25;;;15.70;94.40;;;;;;4992845;28;20116;-75
2022/07/16 03:39:34;;;;;;;0.43;0.40;;;15.70;94.30;;;;;;4991007;28;20041;-75
2022/07/16 03:42:00;;;;;;;0.43;0.43;;;15.70;94.40;;;;;;4991599;28;20363;-74
2022/07/16 03:44:26;;;;;;;0.25;0.25;;;15.70;94.10;;;;;;5007217;28;20229;-63
2022/07/16 03:46:51;;;;;;;0.52;0.52;;;15.70;94.40;;;;;;4992282;28;20501;-63
2022/07/16 03:49:17;;;;;;;0.65;0.65;;;15.60;94.30;;;;;;4992209;28;20026;-63
2022/07/16 03:51:43;;;;;;;0.00;0.00;;;15.70;94.50;;;;;;4992326;28;20069;-63
2022/07/16 03:54:09;;;;;;;0.45;0.45;;;15.60;94.90;;;;;;4991945;28;20041;-63
2022/07/16 03:56:35;;;;;;;0.20;0.20;;;15.50;95.20;;;;;;4992247;28;20026;-63
2022/07/16 03:59:01;;;;;;;0.00;0.00;;;15.50;94.80;;;;;;4991971;28;20034;-64
2022/07/16 04:01:27;;;;;;;0.93;0.80;;;15.60;94.90;;;;;;4992372;28;20121;-65
2022/07/16 04:03:53;;;;;;;0.10;0.10;;;15.50;94.40;;;;;;4992215;28;20034;-64
2022/07/16 04:06:18;;;;;;;0.10;0.10;;;15.50;94.50;;;;;;4991947;28;20034;-64
2022/07/16 04:08:44;;;;;;;0.10;0.10;;;15.40;94.00;;;;;;4990913;28;20556;-64
2022/07/16 04:11:10;;;;;;;0.32;0.32;;;15.40;94.30;;;;;;4990999;28;20434;-64
2022/07/16 04:13:41;;;;;;;0.10;0.10;;;15.20;95.40;;;;;;4991771;28;20383;-64
2022/07/16 04:16:08;;;;;;;0.05;0.05;;;15.20;95.90;;;;;;4975237;28;20019;-64
2022/07/16 04:18:35;;;;;;;0.00;0.00;;;15.10;96.50;;;;;;4972377;28;20613;-65
2022/07/16 04:21:01;;;;;;;0.00;0.00;;;15.10;96.90;;;;;;4972809;28;20035;-64
2022/07/16 04:23:27;;;;;;;0.10;0.10;;;15.00;97.50;;;;;;4972268;28;20781;-64
2022/07/16 04:25:53;;;;;;;0.03;0.03;;;14.80;98.30;;;;;;4972646;28;20055;-64
2022/07/16 04:28:18;;;;;;;0.10;0.10;;;14.80;99.70;;;;;;4972368;28;20042;-63
2022/07/16 04:30:44;;;;;;;0.20;0.20;;;14.80;99.90;;;;;;4970954;28;20038;-63
2022/07/16 04:33:11;;;;;;;0.17;0.17;;;14.80;99.90;;;;;;4971644;28;20034;-64
2022/07/16 04:35:36;;;;;;;0.28;0.28;;;14.90;99.90;;;;;;4972275;28;20464;-63
2022/07/16 04:38:02;;;;;;;0.08;0.08;;;14.80;99.90;;;;;;4972485;28;20095;-64
2022/07/16 04:40:28;;;;;;;2.90;0.63;;;14.80;99.90;;;;;;4972051;28;20121;-64
2022/07/16 04:42:54;;;;;;;1.00;0.40;;;14.90;99.90;;;;;;4987213;28;20056;-63
2022/07/16 04:45:19;;;;;;;0.00;0.00;;;15.00;99.90;;;;;;4987001;28;20039;-63
2022/07/16 04:47:45;;;;;;;0.00;0.00;;;15.00;99.70;;;;;;4972568;28;20031;-63
2022/07/16 04:50:11;;;;;;;0.08;0.08;;;15.10;99.40;;;;;;4971941;28;20038;-63
2022/07/16 04:52:37;;;;;;;0.32;0.32;;;15.20;99.30;;;;;;4987295;28;20023;-63
2022/07/16 04:55:04;;;;;;;0.10;0.05;;;15.20;98.80;;;;;;4971986;28;20446;-63
2022/07/16 04:57:30;;;;;;;0.10;0.10;;;15.20;98.90;;;;;;4987114;28;20035;-63
2022/07/16 04:59:56;;;;;;;0.90;0.65;;;15.40;98.50;;;;;;4971816;28;20037;-64
2022/07/16 05:05:07;;;;;;;0.00;0.00;;;15.40;98.30;;;;;;4984573;28;20129;-63
2022/07/16 05:07:33;;;;;;;0.32;0.32;;;15.50;98.00;;;;;;4972036;28;20089;-63
2022/07/16 05:09:59;;;;;;;0.35;0.35;;;15.60;97.70;;;;;;4971746;28;20031;-63
2022/07/16 05:12:25;;;;;;;1.85;1.55;;;15.60;97.20;;;;;;4971795;28;20030;-63
2022/07/16 05:14:51;;;;;;;0.10;0.10;;;15.70;97.40;;;;;;4976528;28;20081;-63
2022/07/16 05:17:16;;;;;;;2.42;0.55;;;15.80;96.90;;;;;;4991519;28;20092;-63
2022/07/16 05:19:42;;;;;;;0.00;0.00;;;15.90;96.80;;;;;;4991358;28;20062;-63
2022/07/16 05:22:08;;;;;;;0.00;0.00;;;16.00;96.30;;;;;;4991316;28;20489;-63
2022/07/16 05:24:34;;;;;;;0.00;0.00;;;16.00;96.50;;;;;;4991549;28;20034;-63
2022/07/16 05:27:00;;;;;;;0.00;0.00;;;16.10;96.60;;;;;;4989887;28;20057;-64
2022/07/16 05:29:25;;;;;;;0.38;0.38;;;16.10;96.20;;;;;;4991163;28;20414;-64
2022/07/16 05:31:51;;;;;;;0.10;0.10;;;16.20;96.10;;;;;;4991411;28;20023;-64
2022/07/16 05:34:17;;;;;;;4.97;4.15;;;16.20;95.40;;;;;;4991264;28;20034;-64
2022/07/16 05:36:43;;;;;;;3.78;2.03;;;16.30;95.40;;;;;;4991326;28;20030;-64
2022/07/16 05:39:08;;;;;;;1.10;1.08;;;16.40;95.10;;;;;;5005713;28;20483;-64
2022/07/16 05:41:34;;;;;;;0.28;0.28;;;16.50;94.70;;;;;;4990729;28;20038;-64
2022/07/16 05:44:01;;;;;;;0.47;0.47;;;16.60;93.40;;;;;;4990953;28;20110;-64
2022/07/16 05:46:27;;;;;;;0.52;0.52;;;16.70;92.80;;;;;;4993799;28;20030;-64
2022/07/16 05:48:53;;;;;;;0.43;0.43;;;16.80;92.70;;;;;;4994091;28;20068;-64
2022/07/16 05:51:19;;;;;;;0.00;0.00;;;16.90;92.30;;;;;;4994429;28;20065;-65
2022/07/16 05:53:45;;;;;;;0.20;0.20;;;17.10;91.90;;;;;;4993046;28;20045;-65
2022/07/16 05:56:10;;;;;;;0.10;0.10;;;17.30;91.30;;;;;;4994671;28;20037;-65
2022/07/16 05:58:36;;;;;;;0.30;0.30;;;17.40;91.00;;;;;;4993311;28;20026;-65
2022/07/16 06:01:02;;;;;;;0.10;0.10;;;17.40;90.90;;;;;;4989699;28;20442;-64
2022/07/16 06:03:27;;;;;;;0.00;0.00;;;17.50;90.70;;;;;;4974684;28;20062;-64
2022/07/16 06:05:53;;;;;;;1.48;1.15;;;17.70;90.60;;;;;;4974569;28;20073;-64
2022/07/16 06:08:19;;;;;;;0.20;0.20;;;17.90;90.50;;;;;;4974738;28;20085;-64
2022/07/16 06:10:44;;;;;;;2.42;1.25;;;17.90;90.40;;;;;;4974523;28;20041;-72
2022/07/16 06:13:10;;;;;;;0.43;0.43;;;18.00;90.10;;;;;;4974971;28;20088;-72
2022/07/16 06:15:36;;;;;;;0.00;0.00;;;18.00;89.90;;;;;;4973513;28;20115;-72
2022/07/16 06:18:03;;;;;;;0.00;0.00;;;18.00;89.70;;;;;;4974459;28;20042;-72
2022/07/16 06:20:29;;;;;;;0.00;0.00;;;18.10;89.70;;;;;;4973663;28;20039;-72
2022/07/16 06:22:56;;;;;;;0.28;0.28;;;18.10;89.40;;;;;;4974431;28;20085;-72
2022/07/16 06:25:23;;;;;;;0.00;0.00;;;18.10;89.20;;;;;;4973521;28;20057;-72
2022/07/16 06:27:50;;;;;;;0.25;0.20;;;18.20;89.20;;;;;;4957256;28;20063;-72
2022/07/16 06:30:16;;;;;;;0.00;0.00;;;18.10;89.00;;;;;;4973059;28;20137;-71
2022/07/16 06:32:43;;;;;;;0.17;0.13;;;18.20;89.60;;;;;;4973051;28;20058;-72
2022/07/16 06:35:10;;;;;;;0.20;0.20;;;18.30;89.30;;;;;;4973118;28;20113;-71
2022/07/16 06:37:36;;;;;;;0.20;0.20;;;18.40;89.50;;;;;;4973158;28;20035;-72
2022/07/16 06:40:03;;;;;;;0.00;0.00;;;18.50;88.60;;;;;;4974137;28;20122;-73
2022/07/16 06:42:28;;;;;;;0.00;0.00;;;18.60;88.30;;;;;;4973054;28;20058;-72
2022/07/16 06:44:54;;;;;;;0.03;0.03;;;18.70;88.00;;;;;;4973152;28;20553;-72
2022/07/16 06:47:20;;;;;;;0.17;0.17;;;18.80;88.10;;;;;;4973852;28;20038;-72
2022/07/16 06:49:45;;;;;;;0.00;0.00;;;18.90;87.80;;;;;;4972681;28;20046;-72
2022/07/16 06:52:11;;;;;;;0.00;0.00;;;19.00;86.90;;;;;;4973390;28;20035;-72
2022/07/16 06:54:37;;;;;;;0.43;0.35;;;19.10;86.50;;;;;;4973574;28;20027;-75
2022/07/16 06:57:03;;;;;;;0.20;0.20;;;19.10;85.70;;;;;;4973091;28;20042;-73
2022/07/16 06:59:29;;;;;;;0.32;0.05;;;19.20;85.60;;;;;;4972685;28;20058;-65
2022/07/16 07:01:55;;;;;;;0.03;0.03;;;19.30;85.60;;;;;;4973820;28;20110;-65
2022/07/16 07:04:20;;;;;;;0.00;0.00;;;19.40;85.60;;;;;;4973871;28;20034;-67
2022/07/16 07:06:46;;;;;;;0.00;0.00;;;19.50;85.60;;;;;;4974250;28;20073;-68
2022/07/16 07:09:12;;;;;;;0.10;0.10;;;19.60;84.80;;;;;;4972869;28;20030;-67
2022/07/16 07:11:38;;;;;;;0.08;0.08;;;19.70;84.50;;;;;;4973806;28;20037;-67
2022/07/16 07:14:03;;;;;;;0.20;0.20;;;19.70;84.30;;;;;;4972985;28;20065;-63
2022/07/16 07:16:29;;;;;;;11.30;0.68;;;19.80;84.60;;;;;;4973565;28;20443;-69
2022/07/16 07:18:55;;;;;;;0.45;0.17;;;19.90;83.60;;;;;;4973382;28;20030;-68
2022/07/16 07:21:20;;;;;;;0.00;0.00;;;20.00;83.60;;;;;;4971956;28;20089;-70
2022/07/16 07:23:46;;;;;;;0.10;0.10;;;20.10;83.10;;;;;;4973194;28;20031;-70
2022/07/16 07:26:12;;;;;;;0.00;0.00;;;20.20;82.90;;;;;;4973276;28;20134;-68
2022/07/16 07:28:38;;;;;;;0.20;0.20;;;20.20;82.40;;;;;;4970381;28;20027;-68
2022/07/16 07:31:04;;;;;;;0.40;0.40;;;20.20;82.10;;;;;;4973864;28;20569;-67
2022/07/16 07:33:29;;;;;;;0.05;0.05;;;20.30;80.40;;;;;;4983767;28;20030;-68
2022/07/16 07:35:55;;;;;;;1.13;0.68;;;20.40;80.90;;;;;;4972819;28;20035;-69
2022/07/16 07:38:21;;;;;;;0.25;0.20;;;20.40;79.70;;;;;;4970262;28;20023;-69
2022/07/16 07:40:47;;;;;;;1.20;1.08;;;20.40;79.20;;;;;;4981829;28;20031;-69
2022/07/16 07:43:13;;;;;;;0.00;0.00;;;20.40;79.80;;;;;;4990717;28;20109;-69
2022/07/16 07:45:40;;;;;;;0.15;0.15;;;20.50;79.50;;;;;;4991162;28;20430;-69
2022/07/16 07:48:05;;;;;;;0.00;0.00;;;20.50;79.80;;;;;;4990944;28;20126;-68
2022/07/16 07:50:32;;;;;;;0.00;0.00;;;20.60;79.10;;;;;;4992246;28;20050;-68
2022/07/16 07:52:58;;;;;;;0.00;0.00;;;20.70;78.90;;;;;;4990927;28;20050;-70
2022/07/16 07:55:23;;;;;;;0.20;0.10;;;20.80;78.20;;;;;;4991882;28;20619;-69
2022/07/16 07:57:49;;;;;;;0.32;0.32;;;20.90;78.90;;;;;;4990946;28;20034;-68
2022/07/16 08:00:15;;;;;;;0.15;0.10;;;20.90;78.00;;;;;;4972894;28;20386;-78
2022/07/16 08:02:46;;;;;;;0.00;0.00;;;20.90;78.50;;;;;;4972846;28;20109;-81
2022/07/16 08:05:12;;;;;;;0.00;0.00;;;21.10;77.70;;;;;;4971236;28;20491;-76
2022/07/16 08:07:39;;;;;;;0.15;0.15;;;21.30;77.40;;;;;;4987609;28;20050;-79
2022/07/16 08:10:07;;;;;;;0.00;0.00;;;21.20;76.70;;;;;;4971970;28;20038;-80
2022/07/16 08:12:34;;;;;;;0.10;0.10;;;21.30;76.80;;;;;;4971335;28;20031;-81
2022/07/16 08:15:00;;;;;;;0.00;0.00;;;21.30;77.00;;;;;;4971555;28;20033;-79
2022/07/16 08:17:25;;;;;;;0.00;0.00;;;21.40;76.80;;;;;;4972648;28;20039;-72
2022/07/16 08:19:51;;;;;;;0.00;0.00;;;21.60;76.00;;;;;;4972201;28;20429;-71
2022/07/16 08:22:17;;;;;;;0.00;0.00;;;21.70;75.60;;;;;;4970498;28;20039;-70
2022/07/16 08:27:27;;;;;;;0.00;0.00;;;21.90;75.20;;;;;;4972154;28;20031;-72
2022/07/16 08:29:53;;;;;;;0.00;0.00;;;21.90;75.40;;;;;;4970989;28;20037;-71
2022/07/16 08:32:19;;;;;;;0.00;0.00;;;21.90;76.10;;;;;;4970876;28;20131;-72
2022/07/16 08:34:44;;;;;;;0.05;0.05;;;22.10;75.70;;;;;;4970618;28;20047;-71
2022/07/16 08:37:12;;;;;;;0.32;0.32;;;22.20;75.10;;;;;;4971960;28;20031;-70
2022/07/16 08:39:44;;;;;;;0.00;0.00;;;22.30;74.70;;;;;;4990433;23;20137;-68
2022/07/16 08:42:11;;;;;;;0.20;0.20;;;22.10;75.20;;;;;;4996823;28;20093;-69
2022/07/16 08:44:40;;;;;;;0.25;0.25;;;22.10;75.60;;;;;;4991130;28;20471;-68
2022/07/16 08:47:10;;;;;;;0.00;0.00;;;22.20;75.80;;;;;;4974082;28;20038;-69
2022/07/16 08:49:39;;;;;;;0.10;0.10;;;22.30;75.20;;;;;;4973998;28;20022;-69
2022/07/16 08:52:07;;;;;;;0.08;0.08;;;22.30;74.80;;;;;;4991014;28;20356;-69
2022/07/16 08:54:34;;;;;;;0.00;0.00;;;22.10;75.20;;;;;;4991433;28;20026;-70
2022/07/16 08:57:00;;;;;;;1.08;0.90;;;22.20;76.10;;;;;;4958079;28;20125;-71
2022/07/16 08:59:27;;;;;;;0.03;0.03;;;22.40;75.70;;;;;;4973049;28;20141;-71
2022/07/16 09:01:53;;;;;;;0.10;0.10;;;22.70;74.80;;;;;;4954257;28;20031;-70
2022/07/16 09:04:19;;;;;;;0.08;0.08;;;22.80;73.70;;;;;;4954277;28;20605;-70
2022/07/16 09:06:46;;;;;;;0.10;0.10;;;23.00;73.80;;;;;;4971507;28;20166;-70
2022/07/16 09:09:12;;;;;;;0.00;0.00;;;23.10;73.40;;;;;;4970218;28;20030;-70
2022/07/16 09:11:39;;;;;;;0.00;0.00;;;23.20;73.10;;;;;;4970673;28;20071;-70
2022/07/16 09:14:11;;;;;;;2.05;1.17;;;23.30;73.20;;;;;;4969740;28;20427;-70
2022/07/16 09:16:44;;;;;;;0.40;0.40;;;23.50;72.50;;;;;;4970340;28;20031;-70
2022/07/16 09:19:22;;;;;;;3.15;0.50;;;23.50;72.50;;;;;;4953958;28;20125;-71
2022/07/16 09:22:13;;;;;;;0.00;0.00;;;23.40;72.60;;;;;;4957669;28;20034;-69
2022/07/16 09:24:40;;;;;;;;;;;23.10;73.60;;;;;;4975452;28;20036;-71
2022/07/16 09:27:11;;;;;;;0.05;0.00;;;23.00;72.90;;;;;;4974743;28;19914;-71
2022/07/16 09:29:56;;;;;;;0.20;0.20;;;23.00;73.80;;;;;;4988721;28;20027;-71
2022/07/16 09:32:30;;;;;;;0.00;0.00;;;23.10;74.20;;;;;;4973504;28;20030;-70
2022/07/16 09:35:16;;;;;;;0.00;0.00;;;23.30;73.40;;;;;;4958170;28;20331;-71
2022/07/16 09:37:57;;;;;;;0.10;0.10;;;23.30;73.50;;;;;;4964306;28;20038;-70
2022/07/16 09:40:32;;;;;;;0.05;0.05;;;23.40;74.50;;;;;;4955548;28;20063;-70
2022/07/16 09:43:00;;;;;;;0.08;0.08;;;23.60;73.20;;;;;;4955047;29;20039;-70
2022/07/16 09:45:26;;;;;;;0.00;0.00;;;23.70;72.10;;;;;;4955320;29;20034;-70
2022/07/16 09:47:52;;;;;;;0.10;0.10;;;23.50;72.80;;;;;;4953691;28;20542;-69
2022/07/16 09:50:18;;;;;;;0.22;0.20;;;23.60;72.70;;;;;;4954211;29;20035;-70
2022/07/16 09:52:43;;;;;;;0.00;0.00;;;23.80;72.90;;;;;;4955336;29;20035;-70
2022/07/16 09:55:09;;;;;;;0.70;0.55;;;24.10;71.90;;;;;;4955379;29;20039;-69
2022/07/16 09:57:36;;;;;;;0.75;0.32;;;24.20;71.40;;;;;;4955227;28;20043;-69
2022/07/16 10:00:08;;;;;;;0.38;0.22;;;24.30;71.90;;;;;;4958627;28;20022;-66
2022/07/16 10:02:35;;;;;;;0.00;0.00;;;24.50;71.70;;;;;;4976354;28;20057;-65
2022/07/16 10:05:01;;;;;;;0.47;0.30;;;24.50;71.50;;;;;;4994111;28;20038;-66
2022/07/16 10:07:26;;;;;;;0.50;0.45;;;24.60;71.70;;;;;;4975859;28;20049;-66
2022/07/16 10:09:52;;;;;;;0.00;0.00;;;24.80;71.10;;;;;;4994341;28;20482;-69
2022/07/16 10:12:20;;;;;;;0.20;0.20;;;24.80;69.10;;;;;;4976442;28;20049;-67
2022/07/16 10:14:53;;;;;;;0.30;0.30;;;25.10;68.50;;;;;;4967851;28;20027;-68
2022/07/16 10:17:23;;;;;;;0.20;0.20;;;25.10;67.90;;;;;;4957831;28;20031;-65
2022/07/16 10:19:58;;;;;;;0.00;0.00;;;25.10;68.50;;;;;;4972905;28;20124;-66
2022/07/16 10:22:32;;;;;;;0.35;0.20;;;25.20;67.50;;;;;;4974243;28;20051;-65
2022/07/16 10:24:59;;;;;;;0.00;0.00;;;25.30;67.90;;;;;;4974398;28;20039;-65
2022/07/16 10:27:30;;;;;;;0.30;0.15;;;25.30;67.80;;;;;;4974481;28;20062;-65
2022/07/16 10:30:13;;;;;;;0.00;0.00;;;25.40;67.30;;;;;;4990489;28;20035;-66
2022/07/16 10:33:05;;;;;;;0.05;0.05;;;25.60;67.30;;;;;;4989411;28;20394;-66
2022/07/16 10:35:30;;;;;;;0.00;0.00;;;25.60;67.00;;;;;;4974499;28;20123;-67
2022/07/16 10:38:05;;;;;;;1.67;1.00;;;25.70;66.80;;;;;;4972936;28;20480;-67
2022/07/16 10:40:37;;;;;;;0.43;0.43;;;25.80;66.90;;;;;;4955760;28;20177;-74
2022/07/16 10:43:21;;;;;;;0.00;0.00;;;25.80;66.70;;;;;;4940027;28;20088;-74
2022/07/16 10:45:54;;;;;;;0.00;0.00;;;25.90;66.60;;;;;;4941309;28;20082;-75
2022/07/16 10:48:26;;;;;;;0.00;0.00;;;26.10;66.10;;;;;;4973898;28;20118;-75
2022/07/16 10:51:14;;;;;;;0.47;0.47;;;25.90;65.70;;;;;;4973819;28;20105;-75
2022/07/16 10:54:14;;;;;;;0.10;0.10;;;25.70;65.90;;;;;;4973366;28;20038;-74
2022/07/16 10:56:47;;;;;;;3.97;0.80;;;25.70;65.60;;;;;;4936020;28;20043;-75
2022/07/16 10:59:20;;;;;;;0.00;0.00;;;25.80;65.40;;;;;;4950952;28;20031;-74
2022/07/16 11:01:51;;;;;;;0.13;0.13;;;26.00;65.40;;;;;;4993203;28;20121;-74
2022/07/16 11:04:28;;;;;;;0.00;0.00;;;26.30;65.50;;;;;;4975856;28;20037;-74
2022/07/16 11:06:55;;;;;;;0.10;0.10;;;26.50;65.50;;;;;;4976987;28;20042;-74
2022/07/16 11:09:48;;;;;;;1.20;0.88;;;26.90;64.90;;;;;;4959208;28;20026;-75
2022/07/16 11:12:26;;;;;;;0.00;0.00;;;26.80;64.00;;;;;;4976001;28;20026;-75
2022/07/16 11:14:55;;;;;;;0.00;0.00;;;26.60;64.10;;;;;;4976256;28;20113;-75
2022/07/16 11:17:28;;;;;;;0.05;0.03;;;26.60;64.00;;;;;;4975508;28;20138;-75
2022/07/16 11:19:57;;;;;;;0.20;0.10;;;26.60;64.00;;;;;;4975446;28;20149;-75
2022/07/16 11:22:28;;;;;;;0.55;0.35;;;26.10;64.10;;;;;;4992762;28;20038;-74
2022/07/16 11:25:05;;;;;;;0.00;0.00;;;26.30;65.10;;;;;;4971650;28;20027;-74
2022/07/16 11:27:39;;;;;;;0.00;0.00;;;26.50;64.70;;;;;;4956597;28;20031;-75
2022/07/16 11:30:11;;;;;;;0.00;0.00;;;26.50;63.60;;;;;;4991069;28;20022;-76
2022/07/16 11:32:45;;;;;;;0.10;0.10;;;26.50;63.90;;;;;;4958861;28;20030;-75
2022/07/16 11:35:11;;;;;;;0.20;0.10;;;26.50;64.00;;;;;;4992610;28;20553;-74
2022/07/16 11:37:51;;;;;;;0.10;0.10;;;26.70;63.90;;;;;;4975448;28;20041;-78
2022/07/16 11:40:17;;;;;;;1.80;0.73;;;27.10;63.40;;;;;;4975001;28;20034;-80
2022/07/16 11:42:43;;;;;;;0.20;0.05;;;27.20;63.90;;;;;;4937668;28;20289;-78
2022/07/16 11:45:10;;;;;;;0.30;0.05;;;27.20;64.00;;;;;;4972848;28;20069;-79
2022/07/16 11:47:36;;;;;;;0.77;0.10;;;27.60;63.50;;;;;;4971699;28;20483;-78
2022/07/16 11:50:01;;;;;;;0.00;0.00;;;27.80;62.20;;;;;;4971566;28;20038;-79
2022/07/16 11:52:27;;;;;;;0.08;0.08;;;27.60;62.80;;;;;;4971669;28;20448;-78
2022/07/16 11:54:56;;;;;;;0.03;0.03;;;27.60;62.90;;;;;;4972923;28;20062;-76
2022/07/16 11:57:22;;;;;;;0.00;0.00;;;27.50;62.20;;;;;;4973150;28;20043;-77
2022/07/16 11:59:54;;;;;;;1.55;0.82;;;27.50;61.90;;;;;;4988194;28;20439;-76
2022/07/16 12:02:42;;;;;;;0.00;0.00;;;27.70;62.10;;;;;;4992204;28;20070;-77
2022/07/16 12:05:08;;;;;;;0.15;0.15;;;27.70;62.10;;;;;;4977323;28;20069;-78
2022/07/16 12:07:34;;;;;;;0.20;0.17;;;28.00;62.00;;;;;;4991991;28;20065;-78
2022/07/16 12:10:05;;;;;;;0.22;0.05;;;28.00;61.60;;;;;;4991885;28;20518;-76
2022/07/16 12:12:34;;;;;;;0.20;0.10;;;28.20;61.50;;;;;;4991833;28;20486;-76
2022/07/16 12:15:07;;;;;;;0.00;0.00;;;28.30;60.80;;;;;;4991882;28;20041;-76
2022/07/16 12:17:36;;;;;;;0.10;0.10;;;28.20;60.00;;;;;;4974498;28;20030;-76
2022/07/16 12:20:24;;;;;;;3.33;1.05;;;28.00;60.90;;;;;;4991782;28;20386;-75
2022/07/16 12:23:01;;;;;;;0.38;0.30;;;27.90;61.00;;;;;;4991971;28;20038;-75
2022/07/16 12:25:45;;;;;;;0.05;0.05;;;28.10;60.60;;;;;;4974397;28;20026;-74
2022/07/16 12:28:16;;;;;;;0.10;0.10;;;28.30;60.40;;;;;;4974403;28;20126;-75
2022/07/16 12:30:55;;;;;;;0.22;0.22;;;28.30;60.30;;;;;;4991558;28;20081;-74
2022/07/16 12:33:22;;;;;;;0.45;0.22;;;28.10;60.80;;;;;;4991581;28;20029;-73
2022/07/16 12:35:57;;;;;;;4.22;0.68;;;27.80;61.10;;;;;;4991467;28;20030;-74
2022/07/16 12:38:54;;;;;;;0.05;0.05;;;28.00;61.20;;;;;;4944842;28;20045;-74
2022/07/16 12:41:36;;;;;;;0.47;0.47;;;27.90;60.10;;;;;;4973833;28;20061;-74
2022/07/16 12:44:15;;;;;;;0.00;0.00;;;28.20;60.60;;;;;;4964469;28;20098;-75
2022/07/16 12:46:48;;;;;;;0.00;0.00;;;28.50;60.60;;;;;;4972978;28;20069;-76
2022/07/16 12:49:24;;;;;;;0.03;0.03;;;28.50;60.40;;;;;;4969855;28;20569;-75
2022/07/16 12:51:57;;;;;;;0.00;0.00;;;28.20;60.30;;;;;;4980764;28;20442;-77
2022/07/16 12:54:24;;;;;;;2.30;0.63;;;28.00;60.40;;;;;;4971822;28;20057;-75
2022/07/16 12:59:34;;;;;;;0.88;0.45;;;27.80;61.50;;;;;;4972616;28;20055;-76
2022/07/16 13:02:02;;;;;;;1.67;0.82;;;27.80;60.70;;;;;;4975463;28;20578;-76
2022/07/16 13:04:28;;;;;;;1.17;0.30;;;28.10;61.20;;;;;;4957555;28;20069;-77